createdAt,value
2022-11-29T00:02:18.654Z,24.10
2022-11-29T00:04:46.411Z,24.40
2022-11-29T00:07:15.756Z,26.33
2022-11-29T00:09:43.492Z,24.03
2022-11-29T00:12:14.135Z,28.23
2022-11-29T00:14:42.854Z,24.33
2022-11-29T00:17:10.749Z,22.03
2022-11-29T00:19:38.890Z,26.17
2022-11-29T00:22:06.597Z,23.70
2022-11-29T00:24:36.707Z,27.70
2022-11-29T00:27:04.522Z,21.83
2022-11-29T00:29:32.331Z,26.23
2022-11-29T00:32:00.550Z,25.63
2022-11-29T00:34:28.571Z,25.20
2022-11-29T00:36:56.362Z,21.60
2022-11-29T00:39:24.210Z,20.60
2022-11-29T00:41:53.422Z,21.40
2022-11-29T00:44:21.331Z,23.57
2022-11-29T00:46:49.599Z,20.50
2022-11-29T00:49:17.805Z,23.47
2022-11-29T00:51:45.518Z,25.77
2022-11-29T00:54:13.480Z,22.73
2022-11-29T00:56:41.159Z,27.97
2022-11-29T00:59:10.207Z,29.07
2022-11-29T01:01:37.886Z,27.83
2022-11-29T01:04:05.949Z,26.10
2022-11-29T01:06:33.726Z,27.77
2022-11-29T01:09:01.543Z,28.67
2022-11-29T01:11:29.813Z,24.83
2022-11-29T01:13:59.891Z,28.70
2022-11-29T01:16:31.440Z,23.70
2022-11-29T01:18:59.203Z,28.27
2022-11-29T01:21:27.040Z,25.47
2022-11-29T01:23:55.199Z,25.13
2022-11-29T01:26:25.915Z,23.80
2022-11-29T01:28:55.748Z,24.27
2022-11-29T01:31:25.464Z,24.43
2022-11-29T01:33:56.444Z,26.40
2022-11-29T01:36:25.461Z,27.33
2022-11-29T01:38:53.850Z,28.87
2022-11-29T01:41:23.632Z,25.20
2022-11-29T01:44:01.584Z,29.63
2022-11-29T01:46:31.074Z,27.17
2022-11-29T01:49:05.171Z,28.43
2022-11-29T01:51:35.633Z,28.10
2022-11-29T01:54:03.652Z,28.20
2022-11-29T01:56:34.659Z,28.93
2022-11-29T01:59:03.974Z,34.37
2022-11-29T02:01:32.489Z,28.27
2022-11-29T02:04:01.822Z,26.90
2022-11-29T02:06:31.159Z,26.93
2022-11-29T02:08:59.113Z,25.73
2022-11-29T02:11:57.509Z,25.40
2022-11-29T02:14:36.989Z,25.07
2022-11-29T02:17:16.169Z,24.80
2022-11-29T02:20:22.875Z,24.40
2022-11-29T02:22:58.183Z,23.63
2022-11-29T02:25:43.866Z,23.30
2022-11-29T02:29:04.161Z,23.67
2022-11-29T02:31:55.215Z,22.80
2022-11-29T02:34:39.858Z,22.93
2022-11-29T02:37:26.009Z,24.57
2022-11-29T02:40:07.981Z,21.33
2022-11-29T02:42:56.794Z,25.23
2022-11-29T02:45:42.823Z,21.40
2022-11-29T02:48:23.157Z,22.17
2022-11-29T02:50:58.939Z,24.27
2022-11-29T02:53:33.409Z,19.70
2022-11-29T02:56:11.271Z,22.13
2022-11-29T02:58:48.622Z,23.00
2022-11-29T03:01:22.194Z,22.67
2022-11-29T03:03:58.097Z,20.17
2022-11-29T03:06:37.108Z,19.47
2022-11-29T03:09:10.564Z,19.47
2022-11-29T03:11:44.462Z,19.60
2022-11-29T03:14:18.418Z,23.37
2022-11-29T03:16:53.247Z,21.53
2022-11-29T03:19:37.261Z,21.17
2022-11-29T03:22:13.882Z,20.83
2022-11-29T03:24:51.806Z,19.57
2022-11-29T03:27:26.498Z,18.50
2022-11-29T03:30:00.590Z,17.87
2022-11-29T03:32:36.063Z,20.43
2022-11-29T03:35:11.276Z,20.03
2022-11-29T03:37:48.747Z,20.87
2022-11-29T03:40:20.604Z,17.10
2022-11-29T03:43:01.729Z,18.63
2022-11-29T03:45:34.821Z,16.50
2022-11-29T03:48:07.766Z,18.97
2022-11-29T03:50:40.048Z,16.50
2022-11-29T03:53:18.117Z,16.70
2022-11-29T03:55:51.768Z,15.37
2022-11-29T03:58:43.958Z,17.00
2022-11-29T04:01:44.142Z,17.07
2022-11-29T04:04:50.361Z,14.50
2022-11-29T04:07:35.965Z,18.07
2022-11-29T04:10:18.555Z,15.83
2022-11-29T04:13:17.106Z,14.47
2022-11-29T04:16:11.711Z,14.93
2022-11-29T04:19:10.565Z,14.63
2022-11-29T04:21:57.097Z,13.37
2022-11-29T04:24:56.049Z,14.17
2022-11-29T04:27:41.562Z,18.03
2022-11-29T04:30:15.060Z,13.77
2022-11-29T04:33:06.773Z,16.63
2022-11-29T04:35:42.783Z,15.40
2022-11-29T04:38:33.421Z,14.47
2022-11-29T04:41:20.035Z,15.60
2022-11-29T04:43:59.936Z,16.03
2022-11-29T04:46:41.412Z,15.07
2022-11-29T04:49:35.031Z,15.40
2022-11-29T04:52:25.030Z,17.37
2022-11-29T04:55:00.982Z,15.10
2022-11-29T04:57:36.892Z,14.23
2022-11-29T05:00:09.904Z,14.67
2022-11-29T05:02:46.889Z,15.63
2022-11-29T05:05:25.646Z,15.20
2022-11-29T05:08:03.215Z,18.30
2022-11-29T05:10:36.484Z,19.83
2022-11-29T05:13:13.562Z,14.90
2022-11-29T05:16:04.224Z,16.00
2022-11-29T05:18:55.293Z,15.97
2022-11-29T05:21:36.706Z,18.53
2022-11-29T05:24:18.395Z,17.47
2022-11-29T05:26:53.521Z,19.77
2022-11-29T05:29:30.730Z,21.50
2022-11-29T05:32:17.852Z,18.17
2022-11-29T05:35:02.394Z,15.57
2022-11-29T05:37:39.543Z,15.83
2022-11-29T05:40:34.617Z,26.63
2022-11-29T05:43:14.027Z,19.07
2022-11-29T05:45:48.092Z,15.77
2022-11-29T05:48:25.806Z,17.03
2022-11-29T05:51:07.011Z,16.27
2022-11-29T05:53:43.440Z,16.53
2022-11-29T05:56:18.969Z,19.70
2022-11-29T05:58:51.596Z,16.93
2022-11-29T06:01:23.965Z,16.03
2022-11-29T06:04:03.054Z,14.53
2022-11-29T06:06:39.687Z,17.33
2022-11-29T06:09:16.202Z,17.27
2022-11-29T06:11:47.823Z,16.10
2022-11-29T06:14:43.686Z,20.93
2022-11-29T06:17:48.709Z,18.27
2022-11-29T06:20:34.359Z,16.17
2022-11-29T06:23:29.198Z,16.33
2022-11-29T06:26:12.257Z,13.10
2022-11-29T06:28:54.330Z,16.23
2022-11-29T06:31:28.090Z,14.53
2022-11-29T06:34:01.822Z,14.20
2022-11-29T06:36:36.008Z,15.77
2022-11-29T06:39:04.570Z,14.60
2022-11-29T06:41:32.824Z,17.53
2022-11-29T06:44:01.249Z,16.47
2022-11-29T06:46:40.475Z,15.47
2022-11-29T06:49:13.318Z,15.43
2022-11-29T06:51:52.858Z,17.00
2022-11-29T06:54:32.729Z,30.83
2022-11-29T06:57:10.110Z,24.70
2022-11-29T06:59:51.655Z,16.53
2022-11-29T07:02:35.230Z,15.87
2022-11-29T07:05:15.058Z,17.47
2022-11-29T07:07:46.183Z,14.77
2022-11-29T07:10:18.449Z,15.43
2022-11-29T07:12:47.289Z,15.73
2022-11-29T07:15:17.408Z,15.00
2022-11-29T07:17:57.258Z,16.00
2022-11-29T07:20:35.452Z,15.53
2022-11-29T07:23:15.102Z,17.37
2022-11-29T07:25:51.762Z,16.67
2022-11-29T07:28:31.454Z,16.07
2022-11-29T07:31:06.869Z,16.83
2022-11-29T07:33:46.902Z,18.10
2022-11-29T07:36:22.988Z,59.90
2022-11-29T07:39:04.380Z,24.43
2022-11-29T07:41:42.169Z,19.33
2022-11-29T07:44:19.617Z,18.90
2022-11-29T07:46:47.399Z,20.17
2022-11-29T07:49:15.281Z,17.90
2022-11-29T07:51:43.049Z,20.27
2022-11-29T07:54:16.488Z,19.17
2022-11-29T07:56:44.249Z,17.93
2022-11-29T07:59:12.903Z,20.13
2022-11-29T08:01:41.360Z,18.20
2022-11-29T08:04:10.065Z,16.20
2022-11-29T08:06:38.196Z,18.33
2022-11-29T08:09:07.583Z,17.33
2022-11-29T08:11:36.699Z,16.87
2022-11-29T08:14:06.250Z,19.67
2022-11-29T08:16:34.279Z,19.23
2022-11-29T08:19:02.035Z,18.57
2022-11-29T08:21:29.729Z,19.07
2022-11-29T08:23:57.379Z,19.23
2022-11-29T08:26:29.855Z,21.90
2022-11-29T08:29:00.668Z,18.63
2022-11-29T08:31:28.447Z,17.70
2022-11-29T08:33:56.198Z,18.50
2022-11-29T08:36:23.889Z,22.40
2022-11-29T08:38:57.176Z,19.70
2022-11-29T08:41:29.658Z,15.37
2022-11-29T08:43:58.022Z,17.10
2022-11-29T08:46:47.147Z,16.07
2022-11-29T08:49:14.865Z,18.17
2022-11-29T08:51:42.582Z,17.23
2022-11-29T08:54:09.563Z,18.03
2022-11-29T08:59:25.616Z,18.73
2022-11-29T09:01:54.710Z,17.57
2022-11-29T09:04:22.420Z,22.13
2022-11-29T09:06:50.385Z,38.10
2022-11-29T09:09:18.605Z,123.93
2022-11-29T09:11:49.398Z,111.73
2022-11-29T09:14:18.588Z,122.10
2022-11-29T09:16:46.427Z,64.50
2022-11-29T09:19:16.138Z,44.40
2022-11-29T09:21:43.842Z,34.27
2022-11-29T09:24:11.888Z,27.10
2022-11-29T09:26:40.728Z,20.93
2022-11-29T09:29:09.242Z,19.67
2022-11-29T09:31:36.978Z,18.43
2022-11-29T09:34:04.994Z,17.73
2022-11-29T09:36:34.475Z,19.53
2022-11-29T09:39:03.664Z,18.23
2022-11-29T09:41:56.448Z,22.57
2022-11-29T09:44:36.401Z,19.63
2022-11-29T09:47:20.319Z,18.73
2022-11-29T09:49:57.322Z,20.17
2022-11-29T09:52:37.635Z,22.83
2022-11-29T09:55:23.657Z,19.07
2022-11-29T09:57:53.644Z,20.17
2022-11-29T10:00:22.143Z,17.30
2022-11-29T10:02:55.128Z,20.47
2022-11-29T10:05:28.485Z,19.77
2022-11-29T10:08:02.500Z,20.13
2022-11-29T10:10:33.753Z,21.17
2022-11-29T10:13:06.852Z,21.43
2022-11-29T10:15:41.501Z,20.87
2022-11-29T10:18:17.902Z,21.13
2022-11-29T10:20:49.455Z,21.07
2022-11-29T10:23:24.841Z,22.50
2022-11-29T10:25:54.575Z,21.47
2022-11-29T10:28:26.043Z,24.80
2022-11-29T10:30:56.505Z,21.60
2022-11-29T10:33:28.244Z,26.13
2022-11-29T10:35:58.044Z,23.37
2022-11-29T10:38:31.538Z,23.73
2022-11-29T10:41:05.772Z,20.47
2022-11-29T10:43:33.541Z,26.27
2022-11-29T10:46:02.561Z,25.93
2022-11-29T10:48:34.062Z,23.50
2022-11-29T10:51:02.657Z,21.17
2022-11-29T10:53:36.835Z,23.77
2022-11-29T10:56:08.009Z,25.00
2022-11-29T10:58:36.514Z,33.07
2022-11-29T11:01:06.909Z,29.73
2022-11-29T11:03:38.550Z,28.00
2022-11-29T11:06:16.597Z,26.20
2022-11-29T11:08:48.506Z,29.03
2022-11-29T11:11:25.650Z,27.63
2022-11-29T11:14:00.520Z,32.87
2022-11-29T11:16:31.686Z,27.60
2022-11-29T11:19:25.816Z,28.60
2022-11-29T11:21:53.593Z,34.57
2022-11-29T11:24:26.056Z,43.87
2022-11-29T11:26:53.940Z,30.53
2022-11-29T11:29:26.087Z,28.90
2022-11-29T11:31:57.747Z,25.97
2022-11-29T11:34:31.697Z,26.90
2022-11-29T11:37:20.031Z,28.90
2022-11-29T11:39:51.025Z,27.13
2022-11-29T11:42:40.551Z,26.47
2022-11-29T11:45:28.272Z,32.80
2022-11-29T11:47:59.139Z,24.23
2022-11-29T11:50:30.539Z,27.77
2022-11-29T11:53:00.580Z,31.27
2022-11-29T11:55:35.549Z,27.93
2022-11-29T11:58:10.651Z,29.20
2022-11-29T12:03:46.360Z,26.60
2022-11-29T12:06:32.776Z,25.93
2022-11-29T12:09:06.145Z,22.07
2022-11-29T12:11:42.543Z,37.77
2022-11-29T12:14:21.855Z,27.07
2022-11-29T12:16:51.181Z,26.87
2022-11-29T12:19:23.605Z,29.03
2022-11-29T12:21:57.002Z,32.57
2022-11-29T12:24:29.982Z,29.43
2022-11-29T12:27:04.127Z,34.33
2022-11-29T12:29:35.239Z,34.60
2022-11-29T12:32:19.015Z,31.60
2022-11-29T12:35:07.423Z,40.40
2022-11-29T12:37:44.229Z,32.43
2022-11-29T12:40:20.769Z,27.83
2022-11-29T12:42:58.448Z,28.80
2022-11-29T12:45:37.054Z,33.03
2022-11-29T12:48:14.643Z,30.50
2022-11-29T12:50:53.643Z,28.33
2022-11-29T12:53:48.390Z,22.13
2022-11-29T12:56:20.241Z,25.77
2022-11-29T12:59:06.616Z,25.40
2022-11-29T13:01:49.381Z,29.23
2022-11-29T13:04:24.818Z,24.20
2022-11-29T13:07:00.833Z,30.33
2022-11-29T13:09:58.034Z,25.07
2022-11-29T13:12:33.836Z,24.83
2022-11-29T13:15:06.412Z,24.97
2022-11-29T13:17:41.219Z,25.47
2022-11-29T13:20:24.248Z,22.50
2022-11-29T13:22:58.473Z,28.37
2022-11-29T13:25:31.453Z,21.70
2022-11-29T13:28:02.773Z,25.07
2022-11-29T13:30:32.476Z,25.10
2022-11-29T13:33:05.525Z,23.67
2022-11-29T13:35:39.800Z,20.67
2022-11-29T13:38:16.891Z,29.30
2022-11-29T13:40:54.341Z,24.67
2022-11-29T13:43:30.577Z,23.57
2022-11-29T13:46:06.489Z,26.27
2022-11-29T13:48:37.575Z,19.93
2022-11-29T13:51:29.828Z,22.93
2022-11-29T13:53:59.784Z,23.60
2022-11-29T13:56:32.733Z,22.27
2022-11-29T13:59:02.024Z,24.23
2022-11-29T14:01:31.083Z,21.50
2022-11-29T14:04:08.492Z,20.93
2022-11-29T14:06:38.377Z,24.13
2022-11-29T14:09:29.761Z,21.13
2022-11-29T14:12:07.186Z,24.43
2022-11-29T14:14:40.206Z,20.23
2022-11-29T14:17:34.293Z,28.30
2022-11-29T14:20:36.026Z,21.57
2022-11-29T14:23:18.881Z,24.07
2022-11-29T14:26:23.702Z,23.47
2022-11-29T14:28:54.541Z,26.67
2022-11-29T14:31:49.436Z,22.80
2022-11-29T14:34:27.793Z,21.17
2022-11-29T14:37:04.106Z,26.00
2022-11-29T14:39:42.132Z,26.27
2022-11-29T14:42:18.379Z,25.90
2022-11-29T14:44:49.335Z,27.70
2022-11-29T14:47:24.568Z,22.23
2022-11-29T14:49:55.846Z,24.50
2022-11-29T14:52:32.385Z,28.27
2022-11-29T14:55:09.337Z,44.90
2022-11-29T14:58:06.323Z,39.27
2022-11-29T15:01:10.114Z,33.27
2022-11-29T15:03:46.385Z,25.97
2022-11-29T15:06:26.128Z,25.63
2022-11-29T15:09:01.745Z,22.60
2022-11-29T15:11:48.124Z,24.33
2022-11-29T15:14:24.136Z,20.87
2022-11-29T15:17:17.004Z,32.37
2022-11-29T15:20:04.187Z,31.30
2022-11-29T15:22:48.003Z,30.93
2022-11-29T15:25:19.936Z,29.47
2022-11-29T15:27:52.173Z,30.13
2022-11-29T15:30:21.536Z,28.40
2022-11-29T15:32:49.319Z,25.27
2022-11-29T15:35:19.407Z,25.30
2022-11-29T15:37:50.088Z,28.27
2022-11-29T15:40:19.979Z,26.63
2022-11-29T15:42:51.314Z,25.23
2022-11-29T15:45:27.795Z,26.73
2022-11-29T15:47:56.520Z,23.93
2022-11-29T15:50:26.698Z,24.60
2022-11-29T15:53:00.376Z,25.80
2022-11-29T15:55:28.698Z,24.63
2022-11-29T15:58:03.963Z,25.83
2022-11-29T16:00:36.718Z,29.73
2022-11-29T16:03:06.095Z,29.93
2022-11-29T16:05:36.070Z,27.97
2022-11-29T16:08:08.644Z,23.40
2022-11-29T16:10:38.351Z,28.80
2022-11-29T16:13:08.425Z,28.53
2022-11-29T16:15:38.509Z,28.53
2022-11-29T16:18:12.294Z,28.07
2022-11-29T16:20:40.623Z,28.77
2022-11-29T16:23:14.611Z,26.23
2022-11-29T16:25:56.780Z,22.00
2022-11-29T16:28:27.247Z,24.80
2022-11-29T16:30:55.011Z,27.20
2022-11-29T16:33:25.361Z,23.77
2022-11-29T16:36:04.640Z,25.87
2022-11-29T16:38:34.127Z,28.57
2022-11-29T16:41:04.917Z,25.60
2022-11-29T16:43:54.012Z,26.67
2022-11-29T16:46:31.918Z,25.13
2022-11-29T16:49:02.547Z,29.47
2022-11-29T16:51:48.262Z,31.87
2022-11-29T16:54:25.587Z,27.83
2022-11-29T16:56:55.093Z,28.30
2022-11-29T16:59:28.101Z,24.20
2022-11-29T17:01:56.722Z,23.37
2022-11-29T17:04:25.146Z,26.53
2022-11-29T17:06:53.847Z,25.57
2022-11-29T17:09:26.780Z,23.63
2022-11-29T17:11:55.180Z,26.03
2022-11-29T17:14:23.357Z,28.10
2022-11-29T17:16:51.984Z,29.57
2022-11-29T17:19:22.084Z,28.20
2022-11-29T17:21:49.763Z,29.07
2022-11-29T17:24:19.111Z,28.10
2022-11-29T17:26:48.107Z,28.83
2022-11-29T17:29:16.840Z,29.07
2022-11-29T17:31:45.663Z,30.37
2022-11-29T17:34:14.039Z,30.43
2022-11-29T17:36:41.780Z,31.57
2022-11-29T17:39:09.808Z,31.27
2022-11-29T17:41:37.953Z,30.53
2022-11-29T17:44:07.085Z,32.93
2022-11-29T17:46:36.920Z,33.53
2022-11-29T17:49:06.476Z,30.63
2022-11-29T17:51:53.771Z,34.87
2022-11-29T17:54:22.025Z,31.60
2022-11-29T17:56:50.349Z,33.93
2022-11-29T17:59:19.569Z,34.00
2022-11-29T18:01:48.008Z,35.00
2022-11-29T18:04:16.437Z,34.73
2022-11-29T18:06:49.411Z,37.77
2022-11-29T18:09:18.430Z,35.40
2022-11-29T18:11:49.616Z,34.77
2022-11-29T18:14:21.441Z,33.53
2022-11-29T18:16:49.283Z,30.77
2022-11-29T18:19:18.692Z,32.20
2022-11-29T18:21:47.012Z,26.47
2022-11-29T18:24:15.123Z,34.40
2022-11-29T18:26:43.305Z,36.47
2022-11-29T18:29:11.268Z,36.00
2022-11-29T18:31:42.661Z,42.63
2022-11-29T18:34:13.119Z,35.63
2022-11-29T18:36:43.829Z,35.33
2022-11-29T18:39:15.053Z,33.97
2022-11-29T18:41:44.634Z,34.07
2022-11-29T18:44:14.300Z,36.10
2022-11-29T18:46:45.538Z,31.50
2022-11-29T18:49:15.092Z,34.63
2022-11-29T18:51:44.713Z,32.50
2022-11-29T18:54:13.759Z,26.70
2022-11-29T18:56:42.332Z,32.17
2022-11-29T18:59:12.024Z,31.80
2022-11-29T19:01:42.576Z,29.77
2022-11-29T19:04:14.690Z,28.80
2022-11-29T19:06:43.227Z,35.57
2022-11-29T19:09:14.138Z,28.30
2022-11-29T19:11:42.339Z,28.97
2022-11-29T19:14:12.759Z,33.07
2022-11-29T19:16:42.667Z,27.50
2022-11-29T19:19:11.881Z,30.10
2022-11-29T19:21:40.481Z,36.07
2022-11-29T19:24:13.900Z,35.73
2022-11-29T19:26:44.330Z,33.23
2022-11-29T19:29:12.202Z,34.10
2022-11-29T19:31:40.231Z,38.67
2022-11-29T19:34:08.156Z,38.83
2022-11-29T19:36:42.609Z,32.10
2022-11-29T19:39:11.806Z,32.77
2022-11-29T19:41:39.612Z,36.53
2022-11-29T19:44:08.706Z,36.13
2022-11-29T19:46:38.922Z,36.87
2022-11-29T19:49:08.525Z,32.33
2022-11-29T19:51:37.734Z,33.40
2022-11-29T19:54:07.955Z,32.63
2022-11-29T19:56:35.755Z,41.17
2022-11-29T19:59:03.378Z,36.57
2022-11-29T20:01:40.395Z,30.73
2022-11-29T20:04:09.574Z,36.20
2022-11-29T20:06:38.968Z,31.60
2022-11-29T20:09:07.477Z,31.70
2022-11-29T20:11:35.287Z,31.33
2022-11-29T20:14:05.511Z,37.67
2022-11-29T20:16:33.576Z,34.10
2022-11-29T20:19:01.969Z,34.73
2022-11-29T20:21:31.944Z,40.93
2022-11-29T20:24:02.842Z,40.40
2022-11-29T20:26:32.866Z,40.07
2022-11-29T20:29:01.698Z,39.13
2022-11-29T20:31:29.940Z,38.23
2022-11-29T20:33:58.279Z,33.77
2022-11-29T20:36:38.890Z,38.57
2022-11-29T20:39:19.815Z,42.77
2022-11-29T20:42:00.477Z,33.80
2022-11-29T20:44:37.380Z,34.80
2022-11-29T20:47:14.903Z,31.87
2022-11-29T20:49:42.872Z,33.47
2022-11-29T20:52:19.960Z,41.50
2022-11-29T20:54:49.014Z,38.67
2022-11-29T20:57:16.880Z,36.83
2022-11-29T20:59:44.875Z,34.37
2022-11-29T21:02:12.725Z,35.13
2022-11-29T21:04:40.435Z,39.43
2022-11-29T21:07:08.147Z,35.07
2022-11-29T21:09:35.824Z,31.77
2022-11-29T21:12:05.680Z,39.47
2022-11-29T21:14:33.815Z,36.33
2022-11-29T21:17:02.129Z,30.53
2022-11-29T21:19:30.279Z,37.90
2022-11-29T21:22:07.008Z,33.07
2022-11-29T21:24:44.938Z,39.13
2022-11-29T21:27:28.307Z,41.10
2022-11-29T21:29:56.767Z,36.57
2022-11-29T21:32:26.824Z,36.43
2022-11-29T21:34:54.664Z,31.37
2022-11-29T21:37:26.074Z,34.93
2022-11-29T21:39:54.373Z,38.33
2022-11-29T21:42:23.610Z,32.30
2022-11-29T21:44:51.228Z,38.77
2022-11-29T21:47:18.971Z,31.17
2022-11-29T21:49:46.861Z,33.60
2022-11-29T21:52:20.637Z,30.50
2022-11-29T21:54:50.131Z,31.43
2022-11-29T21:57:17.842Z,36.43
2022-11-29T21:59:46.890Z,33.77
2022-11-29T22:02:14.675Z,40.70
2022-11-29T22:04:42.485Z,34.70
2022-11-29T22:07:10.328Z,39.80
2022-11-29T22:09:38.045Z,38.17
2022-11-29T22:12:25.955Z,35.77
2022-11-29T22:14:54.961Z,39.17
2022-11-29T22:17:22.640Z,42.70
2022-11-29T22:19:50.300Z,41.03
2022-11-29T22:22:18.372Z,37.07
2022-11-29T22:24:46.192Z,35.80
2022-11-29T22:27:14.056Z,41.87
2022-11-29T22:29:41.802Z,38.00
2022-11-29T22:32:10.821Z,42.60
2022-11-29T22:34:38.542Z,38.60
2022-11-29T22:37:06.220Z,48.10
2022-11-29T22:39:33.961Z,39.90
2022-11-29T22:42:01.623Z,49.70
2022-11-29T22:44:30.163Z,52.27
2022-11-29T22:46:57.901Z,43.67
2022-11-29T22:49:26.990Z,46.33
2022-11-29T22:51:54.910Z,45.23
2022-11-29T22:54:22.590Z,42.40
2022-11-29T22:56:50.349Z,47.60
2022-11-29T22:59:18.056Z,42.17
2022-11-29T23:01:45.915Z,44.70
2022-11-29T23:04:14.126Z,44.80
2022-11-29T23:06:44.550Z,49.40
2022-11-29T23:09:15.931Z,46.97
2022-11-29T23:11:44.617Z,38.50
2022-11-29T23:14:12.820Z,53.60
2022-11-29T23:16:40.742Z,47.07
2022-11-29T23:19:08.513Z,51.20
2022-11-29T23:21:38.439Z,42.40
2022-11-29T23:24:08.472Z,41.33
2022-11-29T23:26:39.589Z,47.77
2022-11-29T23:29:09.146Z,48.00
2022-11-29T23:31:36.806Z,44.47
2022-11-29T23:34:05.357Z,45.47
2022-11-29T23:36:33.389Z,50.10
2022-11-29T23:39:01.411Z,43.10
2022-11-29T23:41:30.435Z,50.03
2022-11-29T23:43:59.628Z,47.73
2022-11-29T23:46:27.321Z,43.20
2022-11-29T23:48:55.196Z,53.57
2022-11-29T23:51:22.871Z,44.70
2022-11-29T23:53:52.937Z,44.47
2022-11-29T23:56:22.324Z,45.47
2022-11-29T23:58:51.346Z,45.77
